Time;durP1;ratioP1;P1;durP2;ratioP2;P2;SDS_P1;SDS_P2;PMS_P1;PMS_P2;Temp;Humidity;BMP_temperature;BMP_pressure;BME280_temperature;BME280_humidity;BME280_pressure;Samples;Min_cycle;Max_cycle;Signal;HPM_P1;HPM_P2
2021/09/03 04:40:46;;;;;;;5.80;1.82;;;;;;;8.94;84.69;100250.22;1693228;83;21210;-34
2021/09/03 04:43:14;;;;;;;4.70;1.62;;;;;;;9.08;83.92;100252.89;1668285;84;22241;-36
2021/09/03 04:45:51;;;;;;;7.50;1.72;;;;;;;9.18;83.63;100252.52;1688590;83;21016;-35
2021/09/03 04:48:26;;;;;;;5.33;1.72;;;;;;;9.27;83.33;100245.58;1698862;82;21143;-35
2021/09/03 04:50:54;;;;;;;3.15;1.50;;;;;;;9.37;82.50;100250.42;1644899;82;21064;-35
2021/09/03 04:53:42;;;;;;;4.75;2.05;;;;;;;9.46;81.99;100255.69;1632898;84;21413;-34
2021/09/03 04:56:19;;;;;;;5.22;1.62;;;;;;;9.53;81.68;100256.58;1653133;83;21089;-33
2021/09/03 04:58:47;;;;;;;3.17;1.60;;;;;;;9.61;80.79;100253.55;1665200;84;21063;-35
2021/09/03 05:01:19;;;;;;;2.52;1.47;;;;;;;9.66;80.48;100257.48;1614754;84;21166;-35
2021/09/03 05:06:41;;;;;;;2.92;1.70;;;;;;;9.82;79.50;100257.98;1657172;84;21090;-33
2021/09/03 05:17:24;;;;;;;2.67;1.45;;;;;;;10.07;78.63;100255.83;1675643;81;21584;-39
2021/09/03 06:18:17;;;;;;;8.33;1.90;;;;;;;12.32;70.17;100274.87;1650196;83;21588;-34
2021/09/03 06:21:01;;;;;;;1.55;1.30;;;;;;;12.48;70.38;100283.06;1613144;85;21044;-33
2021/09/03 06:24:27;;;;;;;2.27;1.45;;;;;;;12.63;68.89;100282.05;1551481;89;21195;-35
2021/09/03 07:02:52;;;;;;;3.08;1.00;;;;;;;13.85;62.01;100296.94;1583983;84;21271;31
2021/09/03 07:05:33;;;;;;;3.20;1.20;;;;;;;14.01;62.30;100302.42;1609969;87;21211;-33
2021/09/03 07:09:05;;;;;;;;;;;;;;;;;;;;;
2021/09/03 07:18:25;;;;;;;1.00;0.70;;;;;;;14.24;58.44;100299.91;1673624;81;21452;-33
2021/09/03 07:21:45;;;;;;;1.67;1.00;;;;;;;14.22;58.13;100300.39;1705739;81;21192;-38
2021/09/03 07:50:17;;;;;;;0.85;0.50;;;;;;;14.74;54.38;100282.03;1628972;85;21711;-35
2021/09/03 07:53:13;;;;;;;3.05;0.60;;;;;;;14.86;55.20;100296.30;1599647;85;21146;-36
2021/09/03 07:56:04;;;;;;;7.20;1.15;;;;;;;14.98;52.53;100284.68;1592846;85;21484;-34
2021/09/03 08:07:29;;;;;;;1.35;0.90;;;;;;;15.32;49.79;100278.78;1711477;81;21187;31
2021/09/03 08:14:19;;;;;;;1.55;0.60;;;;;;;15.30;48.00;100275.28;1678837;79;28472;31
2021/09/03 08:17:41;;;;;;;2.45;0.85;;;;;;;15.37;49.44;100271.66;1636699;81;20991;31
2021/09/03 09:17:51;;;;;;;1.07;0.60;;;;;;;17.20;43.79;100236.06;1707272;81;21483;-36
2021/09/03 09:32:26;;;;;;;2.45;0.50;;;;;;;17.17;42.69;100232.20;1631403;84;21179;-35
2021/09/03 09:35:17;;;;;;;1.47;0.90;;;;;;;17.20;42.33;100232.09;1589587;86;20997;-35
2021/09/03 09:44:32;;;;;;;3.35;0.62;;;;;;;17.19;41.24;100240.95;1695586;83;21114;-37
2021/09/03 09:50:38;;;;;;;8.25;0.90;;;;;;;16.94;41.91;100240.30;1673665;82;21628;-36
2021/09/03 09:53:11;;;;;;;1.45;1.25;;;;;;;17.02;39.88;100231.70;1698895;82;21078;-35
2021/09/03 09:56:02;;;;;;;3.67;0.68;;;;;;;17.10;41.45;100234.58;1669829;83;21134;-37
2021/09/03 09:58:43;;;;;;;1.07;0.75;;;;;;;17.18;41.61;100236.58;1663427;84;21095;-35
2021/09/03 10:05:09;;;;;;;1.00;0.90;;;;;;;17.37;40.76;100238.23;1628969;85;21866;-35
2021/09/03 10:11:31;;;;;;;3.30;0.68;;;;;;;17.34;41.23;100233.05;1701578;83;21047;-34
2021/09/03 10:14:18;;;;;;;0.57;0.40;;;;;;;17.43;41.44;100228.80;1628069;85;21106;-35
2021/09/03 10:24:45;;;;;;;0.72;0.55;;;;;;;18.02;42.20;100210.27;1637879;82;21693;-32
2021/09/03 10:32:26;;;;;;;0.57;0.40;;;;;;;18.79;38.62;100218.76;1568767;86;21175;31
2021/09/03 10:43:05;;;;;;;2.00;0.65;;;;;;;19.78;36.25;100208.06;1689211;80;21109;-34
2021/09/03 10:46:31;;;;;;;0.78;0.57;;;;;;;20.28;35.06;100194.05;1744237;80;21107;-34
2021/09/03 10:49:40;;;;;;;3.67;0.60;;;;;;;20.67;34.93;100201.31;1659874;83;21069;-37
2021/09/03 10:52:22;;;;;;;1.55;0.88;;;;;;;20.92;34.42;100190.46;1630514;82;21207;-34
2021/09/03 10:57:25;;;;;;;1.30;0.70;;;;;;;21.46;33.74;100195.12;1664910;80;21220;-36
2021/09/03 11:18:13;;;;;;;7.42;0.70;;;;;;;21.68;32.90;100172.80;1611770;85;21167;-36
2021/09/03 11:25:21;;;;;;;0.80;0.57;;;;;;;21.08;32.86;100163.58;1558100;89;21634;-36
2021/09/03 11:35:43;;;;;;;1.20;0.55;;;;;;;19.68;37.16;100159.78;1621800;86;21177;-35
2021/09/03 11:38:44;;;;;;;2.30;0.65;;;;;;;19.76;37.25;100155.48;1559063;89;21532;-36
2021/09/03 11:41:38;;;;;;;0.60;0.47;;;;;;;19.88;37.46;100166.94;1533434;90;21384;-36
2021/09/03 11:48:15;;;;;;;4.33;0.55;;;;;;;19.64;36.05;100148.41;1540842;89;21629;-39
2021/09/03 11:51:48;;;;;;;0.60;0.47;;;;;;;19.35;36.32;100150.84;1522878;90;21128;-39
2021/09/03 11:54:55;;;;;;;5.72;0.55;;;;;;;19.29;37.74;100150.21;1535869;90;21216;-37
2021/09/03 11:57:30;;;;;;;0.95;0.60;;;;;;;19.32;38.40;100146.13;1512911;87;21229;-37
2021/09/03 12:01:17;;;;;;;2.08;0.80;;;;;;;19.38;36.99;100143.23;1562440;89;21136;-37
2021/09/03 12:04:09;;;;;;;3.50;1.05;;;;;;;19.32;36.60;100143.48;1574279;88;21155;-39
2021/09/03 12:07:01;;;;;;;1.37;0.60;;;;;;;19.11;36.96;100139.84;1545581;90;21184;-39
2021/09/03 12:10:25;;;;;;;1.47;0.68;;;;;;;19.12;38.35;100129.16;1571211;89;21334;-37
2021/09/03 12:16:37;;;;;;;0.62;0.57;;;;;;;19.24;36.78;100125.65;1650230;84;21562;-37
2021/09/03 12:19:10;;;;;;;0.65;0.50;;;;;;;19.25;37.62;100128.70;1631960;85;21026;-39
2021/09/03 12:22:23;;;;;;;1.32;0.70;;;;;;;19.29;37.98;100135.63;1586739;87;21202;-39
2021/09/03 12:31:50;;;;;;;1.00;0.60;;;;;;;19.27;37.92;100120.24;1621667;83;21198;-37
2021/09/03 12:34:38;;;;;;;2.05;0.82;;;;;;;19.41;37.69;100115.25;1663389;84;21633;-36
2021/09/03 12:37:26;;;;;;;2.17;1.10;;;;;;;19.39;36.87;100111.80;1620888;85;21172;-35
2021/09/03 12:40:07;;;;;;;3.60;0.68;;;;;;;19.30;36.67;100114.34;1639148;83;21092;-35
2021/09/03 12:42:42;;;;;;;1.15;0.70;;;;;;;19.24;37.13;100106.62;1672055;82;21124;-39
2021/09/03 12:45:27;;;;;;;0.82;0.60;;;;;;;19.29;38.18;100118.39;1680431;83;21353;-38
2021/09/03 12:48:05;;;;;;;0.65;0.60;;;;;;;19.39;38.22;100111.80;1698351;81;21719;-35
2021/09/03 12:50:33;;;;;;;1.07;0.60;;;;;;;19.43;37.53;100112.09;1685529;83;21541;-36
2021/09/03 12:53:43;;;;;;;0.82;0.75;;;;;;;19.26;37.37;100113.22;1681177;82;21065;-39
2021/09/03 12:56:38;;;;;;;0.95;0.60;;;;;;;19.06;37.22;100112.63;1680969;83;21183;-39
2021/09/03 12:59:23;;;;;;;2.22;0.88;;;;;;;18.80;37.91;100104.34;1602409;85;22405;-40
2021/09/03 13:02:10;;;;;;;1.50;0.60;;;;;;;18.69;38.57;100099.89;1642488;85;21472;-37
2021/09/03 13:07:29;;;;;;;1.32;0.75;;;;;;;18.96;39.11;100090.03;1627459;84;21190;-37
2021/09/03 13:10:28;;;;;;;1.07;0.62;;;;;;;19.12;38.69;100085.88;1494354;93;21092;-40
2021/09/03 13:13:13;;;;;;;0.78;0.55;;;;;;;19.40;38.90;100085.67;1473978;93;21760;-39
2021/09/03 13:15:57;;;;;;;1.87;0.50;;;;;;;19.76;37.56;100082.03;1511184;93;21273;-39
2021/09/03 13:18:46;;;;;;;1.02;0.60;;;;;;;20.21;36.78;100085.02;1490268;93;21202;-36
2021/09/03 13:24:20;;;;;;;1.27;0.80;;;;;;;20.18;35.92;100083.84;1502262;92;21425;-36
2021/09/03 13:26:49;;;;;;;3.35;0.90;;;;;;;19.85;36.13;100086.97;1553314;90;21628;-39
2021/09/03 13:29:24;;;;;;;3.35;0.80;;;;;;;19.54;37.22;100089.98;1527036;91;21112;-36
2021/09/03 13:31:52;;;;;;;4.00;1.00;;;;;;;19.30;37.21;100081.65;1540055;91;21154;-36
2021/09/03 13:34:28;;;;;;;1.77;0.72;;;;;;;19.36;37.52;100076.97;1538976;89;21108;-36
2021/09/03 13:36:55;;;;;;;0.80;0.55;;;;;;;19.60;38.04;100070.34;1574496;88;21189;-40
2021/09/03 13:43:38;;;;;;;2.58;0.80;;;;;;;19.92;37.58;100072.51;1655227;81;21132;-36
2021/09/03 13:46:07;;;;;;;1.10;0.80;;;;;;;19.96;36.83;100081.22;1607302;87;21579;-36
2021/09/03 13:48:55;;;;;;;0.95;0.70;;;;;;;19.84;36.86;100085.72;1573663;88;21738;-36
2021/09/03 13:51:33;;;;;;;0.78;0.53;;;;;;;19.64;36.64;100073.25;1610058;87;21438;-39
2021/09/03 13:54:12;;;;;;;1.45;0.62;;;;;;;19.47;37.95;100066.39;1607097;87;21649;-36
2021/09/03 13:59:44;;;;;;;2.60;0.50;;;;;;;19.20;37.45;100064.39;1630770;86;21938;-38
2021/09/03 14:02:33;;;;;;;0.82;0.80;;;;;;;18.98;38.23;100067.00;1612221;82;21347;-36
2021/09/03 14:05:03;;;;;;;2.27;0.57;;;;;;;18.80;38.75;100072.54;1696994;83;21707;-35
2021/09/03 14:07:36;;;;;;;1.00;0.82;;;;;;;18.65;38.99;100067.76;1687995;83;21089;-35
2021/09/03 14:10:21;;;;;;;1.55;0.78;;;;;;;18.56;39.11;100063.67;1695313;83;21040;-35
2021/09/03 14:12:51;;;;;;;3.37;1.10;;;;;;;18.75;39.55;100070.52;1661658;83;21685;-36
2021/09/03 14:15:28;;;;;;;1.20;0.60;;;;;;;18.84;39.29;100058.23;1665514;84;21104;-38
2021/09/03 14:17:58;;;;;;;2.12;0.93;;;;;;;19.08;38.56;100065.27;1697931;83;21634;-39
2021/09/03 14:20:33;;;;;;;0.95;0.53;;;;;;;19.25;37.91;100063.72;1656109;84;21124;-36
2021/09/03 14:23:11;;;;;;;1.40;0.60;;;;;;;19.19;38.59;100063.97;1679389;83;21091;-39
2021/09/03 14:25:43;;;;;;;0.75;0.55;;;;;;;19.06;38.83;100062.26;1688652;83;21056;-36
2021/09/03 14:28:18;;;;;;;1.80;0.70;;;;;;;19.07;38.87;100060.86;1622237;83;21121;-39
2021/09/03 14:30:52;;;;;;;0.50;0.50;;;;;;;19.38;38.58;100047.75;1673028;83;21216;-36
2021/09/03 14:33:19;;;;;;;1.40;0.50;;;;;;;19.75;37.75;100043.62;1666705;83;21274;-38
2021/09/03 14:35:54;;;;;;;3.72;0.75;;;;;;;19.82;37.98;100048.59;1657382;82;21158;-38
2021/09/03 14:38:31;;;;;;;2.52;0.80;;;;;;;19.69;37.26;100047.86;1675331;84;21686;-36
2021/09/03 14:41:16;;;;;;;;;;;;;;;;;;;;;
2021/09/03 14:46:19;;;;;;;1.50;0.70;;;;;;;19.68;37.73;100028.42;1728784;82;21140;-38
2021/09/03 14:48:57;;;;;;;0.72;0.60;;;;;;;19.51;38.36;100024.23;1730927;81;21603;-39
